Time;durP1;ratioP1;P1;durP2;ratioP2;P2;SDS_P1;SDS_P2;PMS_P1;PMS_P2;Temp;Humidity;BMP_temperature;BMP_pressure;BME280_temperature;BME280_humidity;BME280_pressure;Samples;Min_cycle;Max_cycle;Signal;HPM_P1;HPM_P2
2021/01/09 00:07:51;;;;;;;12.63;5.75;;;21.50;44.40;;;;;;20967869;28;20055;-15
2021/01/09 00:17:52;;;;;;;12.18;4.65;;;21.50;43.90;;;;;;20974439;28;20039;-14
2021/01/09 00:27:53;;;;;;;15.25;4.68;;;21.40;43.80;;;;;;20974107;28;20111;-14
2021/01/09 00:37:53;;;;;;;15.97;5.70;;;21.30;43.90;;;;;;20967275;28;20060;-14
2021/01/09 00:47:54;;;;;;;11.97;5.00;;;21.20;44.00;;;;;;20977578;28;20504;-15
2021/01/09 00:57:54;;;;;;;12.88;4.78;;;21.10;43.90;;;;;;20961300;28;20466;-14
2021/01/09 01:07:55;;;;;;;13.68;5.10;;;20.90;44.40;;;;;;20955846;28;20028;-14
2021/01/09 01:17:56;;;;;;;10.93;5.13;;;20.70;44.80;;;;;;20960644;28;20029;-15
2021/01/09 01:27:56;;;;;;;8.60;4.28;;;20.50;44.70;;;;;;20967339;28;20396;-15
2021/01/09 01:37:57;;;;;;;8.18;3.60;;;20.60;44.40;;;;;;20955334;28;20050;-14
2021/01/09 01:47:57;;;;;;;6.20;4.00;;;20.50;44.20;;;;;;20973417;28;20028;-15
2021/01/09 01:57:58;;;;;;;7.97;3.30;;;20.40;43.90;;;;;;20973959;28;20025;-15
2021/01/09 02:08:02;;;;;;;6.03;3.03;;;20.30;43.70;;;;;;20996564;28;20036;-15
2021/01/09 02:18:03;;;;;;;7.95;2.90;;;20.30;43.60;;;;;;20980743;28;20029;-15
2021/01/09 02:28:04;;;;;;;8.10;2.78;;;20.20;43.50;;;;;;20984889;28;20032;-15
2021/01/09 02:38:06;;;;;;;4.38;2.28;;;20.10;43.50;;;;;;20988713;28;20028;-15
2021/01/09 02:48:07;;;;;;;4.38;2.55;;;20.10;43.20;;;;;;20998058;28;20082;-15
2021/01/09 02:58:08;;;;;;;7.10;2.40;;;20.00;43.00;;;;;;20996293;28;20031;-15
2021/01/09 03:08:08;;;;;;;4.57;2.40;;;19.90;42.80;;;;;;21005391;28;20060;-15
2021/01/09 03:18:09;;;;;;;6.15;2.70;;;19.80;42.80;;;;;;21027350;28;20029;-15
2021/01/09 03:28:09;;;;;;;4.82;2.55;;;19.70;42.90;;;;;;21019270;28;20078;-15
2021/01/09 03:38:10;;;;;;;4.28;2.42;;;19.70;42.70;;;;;;21035929;22;20161;-14
2021/01/09 03:48:11;;;;;;;4.47;2.42;;;19.60;42.60;;;;;;21126084;28;20050;-14
2021/01/09 03:58:12;;;;;;;4.18;2.22;;;19.60;42.40;;;;;;21143346;28;20020;-13
2021/01/09 04:08:12;;;;;;;3.25;1.67;;;19.50;42.30;;;;;;21158880;28;20069;-13
2021/01/09 04:18:13;;;;;;;3.47;2.70;;;19.50;42.30;;;;;;21146185;28;20020;-15
2021/01/09 04:28:13;;;;;;;3.88;2.67;;;19.50;42.10;;;;;;21153524;28;20042;-14
2021/01/09 04:38:15;;;;;;;4.78;2.70;;;19.40;42.10;;;;;;21148272;28;20028;-15
2021/01/09 04:48:16;;;;;;;3.22;2.13;;;19.40;42.00;;;;;;21153274;28;20027;-14
2021/01/09 04:58:17;;;;;;;3.28;2.60;;;19.30;42.00;;;;;;21128876;28;20028;-14
2021/01/09 05:08:18;;;;;;;6.93;2.60;;;19.20;41.90;;;;;;21156957;28;20031;-16
2021/01/09 05:18:18;;;;;;;4.17;2.50;;;19.20;41.90;;;;;;21165777;28;20475;-15
2021/01/09 05:28:19;;;;;;;5.03;2.00;;;19.20;41.70;;;;;;21169828;28;20102;-15
2021/01/09 05:38:34;;;;;;;3.75;2.50;;;19.10;41.60;;;;;;21151356;28;20034;-15
2021/01/09 05:48:36;;;;;;;4.32;2.30;;;19.10;41.60;;;;;;21153405;28;20032;-15
2021/01/09 05:58:38;;;;;;;3.63;1.98;;;19.00;41.60;;;;;;21152572;28;20103;-15
2021/01/09 06:08:44;;;;;;;4.75;2.20;;;19.00;41.60;;;;;;21153035;28;20050;-14
2021/01/09 06:18:45;;;;;;;1.77;1.50;;;19.00;41.40;;;;;;21152236;28;20131;-14
2021/01/09 06:28:51;;;;;;;1.60;1.30;;;19.00;41.40;;;;;;21106364;28;20388;-14
2021/01/09 06:38:54;;;;;;;2.80;1.77;;;18.90;41.20;;;;;;21095136;28;20139;-15
2021/01/09 06:48:55;;;;;;;3.65;1.65;;;18.90;41.00;;;;;;21080232;28;20506;-15
2021/01/09 06:58:55;;;;;;;2.20;1.58;;;18.80;41.20;;;;;;21093870;28;20028;-15
2021/01/09 07:08:58;;;;;;;3.83;1.40;;;18.80;41.20;;;;;;21092864;28;20104;-15
2021/01/09 07:18:59;;;;;;;2.13;1.13;;;18.90;41.40;;;;;;21120213;28;20503;-15
2021/01/09 07:29:03;;;;;;;4.75;1.48;;;18.90;41.70;;;;;;21129791;28;20472;-15
2021/01/09 07:39:05;;;;;;;14.75;4.85;;;19.20;41.10;;;;;;21099606;28;20090;-13
2021/01/09 07:49:24;;;;;;;13.52;3.53;;;19.70;40.80;;;;;;21150148;28;20032;-16
2021/01/09 07:59:25;;;;;;;13.63;2.90;;;20.40;39.90;;;;;;21090735;28;20420;-14
2021/01/09 08:09:28;;;;;;;6.57;3.03;;;21.00;39.00;;;;;;21081689;28;20030;-14
2021/01/09 08:19:29;;;;;;;7.60;2.50;;;21.70;38.10;;;;;;21079162;28;20032;-14
2021/01/09 08:29:29;;;;;;;11.35;2.25;;;22.30;37.20;;;;;;21071253;28;20080;-14
2021/01/09 08:39:34;;;;;;;5.10;1.92;;;22.80;36.70;;;;;;21112041;28;20034;-14
2021/01/09 08:49:42;;;;;;;10.05;2.28;;;23.40;36.00;;;;;;21109951;28;20092;-14
2021/01/09 08:59:42;;;;;;;5.87;1.83;;;23.70;35.70;;;;;;21118077;28;20387;-14
2021/01/09 09:09:43;;;;;;;8.93;2.08;;;23.90;34.90;;;;;;21128662;28;20023;-14
2021/01/09 09:19:45;;;;;;;10.20;1.98;;;23.60;35.40;;;;;;21152177;28;20459;-14
2021/01/09 09:29:46;;;;;;;13.70;2.42;;;23.50;36.10;;;;;;21122904;28;20024;-15
2021/01/09 09:39:47;;;;;;;20.65;3.10;;;23.70;36.70;;;;;;21074370;28;20060;-14
2021/01/09 09:49:47;;;;;;;11.63;2.58;;;23.70;36.90;;;;;;21080596;28;20050;-14
2021/01/09 10:00:01;;;;;;;6.03;2.55;;;23.50;37.10;;;;;;21100884;28;20085;-15
2021/01/09 10:10:19;;;;;;;4.75;2.80;;;22.90;36.20;;;;;;21087333;28;20036;-14
2021/01/09 10:20:20;;;;;;;10.15;2.63;;;22.50;34.90;;;;;;21127525;28;20478;-14
2021/01/09 10:30:21;;;;;;;14.10;3.65;;;22.60;35.40;;;;;;21119570;28;20152;-14
2021/01/09 10:40:21;;;;;;;10.88;2.33;;;23.00;36.70;;;;;;21095140;28;20032;-14
2021/01/09 10:50:22;;;;;;;13.63;4.23;;;23.20;37.30;;;;;;21125597;28;20039;-14
2021/01/09 11:00:22;;;;;;;25.90;4.07;;;23.00;38.10;;;;;;21079544;28;20466;-14
2021/01/09 11:10:23;;;;;;;16.50;3.43;;;23.00;38.50;;;;;;21119711;28;20042;-15
2021/01/09 11:20:23;;;;;;;10.05;2.58;;;22.70;39.10;;;;;;21123811;28;20470;-15
2021/01/09 11:30:25;;;;;;;9.40;2.75;;;22.70;39.20;;;;;;21116595;28;20110;-13
2021/01/09 11:40:26;;;;;;;16.05;3.53;;;23.20;38.90;;;;;;21120490;28;20504;-15
2021/01/09 11:50:27;;;;;;;15.82;3.00;;;23.50;38.90;;;;;;21101042;28;20034;-15
2021/01/09 12:00:27;;;;;;;17.90;4.90;;;23.90;38.80;;;;;;21070666;28;20024;-16
2021/01/09 12:10:31;;;;;;;24.15;3.55;;;24.30;38.50;;;;;;21087363;28;20032;-16
2021/01/09 12:20:33;;;;;;;22.60;4.88;;;24.40;38.50;;;;;;21101637;28;20035;-14
2021/01/09 12:30:35;;;;;;;19.05;4.15;;;24.30;37.20;;;;;;21095616;28;20058;-15
2021/01/09 12:40:35;;;;;;;18.58;3.90;;;24.10;37.80;;;;;;21069418;28;20035;-14
2021/01/09 12:50:42;;;;;;;21.23;3.83;;;23.80;38.90;;;;;;21064747;28;20024;-15
2021/01/09 13:00:43;;;;;;;11.77;3.30;;;23.90;39.20;;;;;;21079620;28;20028;-15
2021/01/09 13:10:43;;;;;;;19.52;5.22;;;23.70;39.20;;;;;;21050736;28;20127;-15
2021/01/09 13:20:44;;;;;;;20.30;3.40;;;23.70;39.20;;;;;;21099839;28;20028;-15
2021/01/09 13:30:44;;;;;;;17.48;4.10;;;23.70;39.30;;;;;;21074642;28;20104;-15
2021/01/09 13:40:45;;;;;;;13.00;2.75;;;23.60;39.50;;;;;;21081216;28;20054;-15
2021/01/09 13:50:46;;;;;;;15.45;3.10;;;23.70;39.40;;;;;;21127282;28;20425;-15
2021/01/09 14:00:47;;;;;;;14.35;3.70;;;23.60;39.90;;;;;;21162959;28;20069;-15
2021/01/09 14:10:47;;;;;;;20.58;5.55;;;23.60;40.10;;;;;;21145870;28;20054;-14
2021/01/09 14:20:53;;;;;;;32.33;12.77;;;23.70;39.80;;;;;;21139625;28;20043;-15
2021/01/09 14:30:54;;;;;;;28.42;11.30;;;23.70;39.90;;;;;;21101526;28;20035;-14
2021/01/09 14:40:55;;;;;;;26.85;9.65;;;23.70;40.30;;;;;;21093621;28;20035;-16
2021/01/09 14:50:56;;;;;;;12.82;7.70;;;23.70;40.00;;;;;;21145018;28;20360;-16
2021/01/09 15:00:56;;;;;;;18.90;8.70;;;23.60;39.90;;;;;;21130464;28;20047;-16
2021/01/09 15:10:57;;;;;;;16.75;6.85;;;23.70;40.20;;;;;;21126714;28;20023;-15
2021/01/09 15:20:58;;;;;;;26.83;7.32;;;23.60;39.50;;;;;;21148622;28;20595;-15
2021/01/09 15:30:58;;;;;;;13.30;5.20;;;23.80;38.50;;;;;;21144346;28;20032;-15
2021/01/09 15:40:59;;;;;;;14.75;5.50;;;23.60;38.50;;;;;;21146482;22;20571;-15
2021/01/09 15:51:02;;;;;;;13.40;4.75;;;23.70;38.70;;;;;;21132256;28;20031;-16
2021/01/09 16:01:05;;;;;;;10.98;4.43;;;23.50;39.10;;;;;;21148835;28;20076;-15
2021/01/09 16:11:14;;;;;;;8.77;4.70;;;23.60;38.90;;;;;;21160357;28;20047;-17
2021/01/09 16:21:14;;;;;;;9.45;3.95;;;23.40;39.10;;;;;;21147440;28;20483;-16
2021/01/09 16:31:37;;;;;;;7.03;3.22;;;23.50;38.80;;;;;;21157665;28;20432;-16
2021/01/09 16:41:37;;;;;;;13.82;4.38;;;23.50;38.90;;;;;;21156297;28;20514;-15
2021/01/09 16:51:38;;;;;;;9.70;3.60;;;23.70;38.50;;;;;;21114339;28;20399;-15
2021/01/09 17:01:39;;;;;;;8.50;3.40;;;23.90;37.60;;;;;;21129146;28;20496;-15
2021/01/09 17:11:44;;;;;;;10.27;3.55;;;23.90;37.90;;;;;;21156871;28;20580;-16
2021/01/09 17:21:46;;;;;;;6.63;2.83;;;24.00;37.70;;;;;;21151032;28;20056;-16
2021/01/09 17:31:49;;;;;;;9.52;4.32;;;23.90;38.00;;;;;;21143378;28;20040;-16
2021/01/09 17:41:50;;;;;;;6.63;3.13;;;24.00;38.20;;;;;;21119055;28;20032;-16
2021/01/09 17:51:51;;;;;;;8.10;3.53;;;24.00;38.40;;;;;;21100487;28;20040;-16
2021/01/09 18:01:51;;;;;;;6.10;3.78;;;23.90;38.60;;;;;;21107676;28;20162;-16
2021/01/09 18:11:57;;;;;;;6.80;2.43;;;23.90;38.50;;;;;;21105667;28;20625;-16
2021/01/09 18:22:00;;;;;;;6.95;3.15;;;23.90;38.80;;;;;;21103023;28;21085;-16
2021/01/09 18:32:08;;;;;;;7.05;3.00;;;23.90;38.60;;;;;;21122566;28;20088;-15
2021/01/09 18:42:14;;;;;;;8.10;3.20;;;23.60;39.30;;;;;;21126816;28;20028;-16
2021/01/09 18:52:15;;;;;;;4.93;3.40;;;23.40;39.80;;;;;;21122449;28;20401;-16
2021/01/09 19:02:16;;;;;;;9.77;4.38;;;23.10;41.70;;;;;;21104015;28;20031;-15
2021/01/09 19:12:16;;;;;;;5.28;3.63;;;23.00;41.80;;;;;;21121903;28;20550;-15
2021/01/09 19:22:17;;;;;;;10.70;3.80;;;23.30;41.20;;;;;;21109545;28;20034;-14
2021/01/09 19:32:18;;;;;;;5.65;3.30;;;23.40;40.90;;;;;;21098369;28;20028;-15
2021/01/09 19:42:19;;;;;;;16.98;3.72;;;23.30;41.50;;;;;;21074565;28;20051;-15
2021/01/09 19:52:19;;;;;;;16.55;4.38;;;23.40;40.80;;;;;;21120199;28;20045;-15
2021/01/09 20:02:20;;;;;;;17.85;3.90;;;23.30;41.20;;;;;;21134357;28;20102;-15
2021/01/09 20:12:25;;;;;;;13.63;4.13;;;23.40;40.50;;;;;;21087112;28;20055;-14
2021/01/09 20:22:26;;;;;;;12.05;4.55;;;23.20;40.50;;;;;;20938388;28;20035;-15
2021/01/09 20:32:26;;;;;;;19.15;5.70;;;23.30;40.20;;;;;;20974673;28;20060;-14
2021/01/09 20:42:28;;;;;;;17.02;5.93;;;23.20;40.50;;;;;;20974759;28;20044;-15
2021/01/09 20:52:28;;;;;;;10.73;4.55;;;23.30;40.20;;;;;;21111084;28;20373;-16
2021/01/09 21:02:32;;;;;;;11.23;5.40;;;23.20;40.40;;;;;;21069522;28;20031;-15
2021/01/09 21:12:32;;;;;;;11.15;4.40;;;23.40;39.90;;;;;;21068958;28;20016;-14
2021/01/09 21:22:33;;;;;;;9.23;4.25;;;23.60;39.40;;;;;;21068038;28;20020;-15
2021/01/09 21:32:34;;;;;;;8.30;4.20;;;23.60;39.50;;;;;;21064856;28;20637;-15
2021/01/09 21:42:35;;;;;;;7.30;3.80;;;23.80;39.10;;;;;;21064217;28;20032;-15
2021/01/09 21:52:35;;;;;;;5.80;3.78;;;23.60;39.20;;;;;;21097970;28;20032;-15
2021/01/09 22:02:36;;;;;;;6.53;3.78;;;23.80;38.90;;;;;;21096487;28;20026;-15
2021/01/09 22:12:37;;;;;;;9.50;4.00;;;24.00;38.70;;;;;;21114335;28;20081;-15
2021/01/09 22:22:43;;;;;;;9.02;4.55;;;23.80;39.10;;;;;;21112137;28;20510;-16
2021/01/09 22:32:49;;;;;;;6.80;3.47;;;23.80;39.20;;;;;;21077893;28;20066;-15
2021/01/09 22:42:49;;;;;;;8.80;4.00;;;23.60;39.60;;;;;;21110420;28;20036;-15
2021/01/09 22:52:50;;;;;;;5.95;3.55;;;23.70;39.40;;;;;;21126283;28;20055;-15
2021/01/09 23:02:51;;;;;;;7.70;4.47;;;23.60;39.70;;;;;;21151961;28;20538;-15
2021/01/09 23:12:51;;;;;;;6.82;3.72;;;23.60;39.70;;;;;;21153654;28;20102;-15
2021/01/09 23:22:54;;;;;;;5.13;3.50;;;23.40;40.00;;;;;;21165091;28;20395;-15
2021/01/09 23:32:56;;;;;;;6.10;3.42;;;23.30;40.10;;;;;;21191551;22;20104;-16
2021/01/09 23:42:57;;;;;;;6.35;3.90;;;23.00;40.50;;;;;;21137696;28;20035;-17
2021/01/09 23:52:57;;;;;;;6.53;3.90;;;22.70;41.00;;;;;;21105007;28;20080;-15
